CPX712 Details

Departure: Tokyo-Narita International Airport (RJAA)
Arrival: Incheon International Airport (RKSI)
Route: SOUKA Y16 SAPRA Y685 SEL SEL1T


Current Weather Information
RJAA 260000Z 29005KT 8000 -RA FEW015 BKN040 09/08 Q1013 NOSIG
RKSI 260000Z 05003KT 360V090 3500 BR FEW010 SCT030 09/05 Q1018 NOSIG